Time;durP1;ratioP1;P1;durP2;ratioP2;P2;SDS_P1;SDS_P2;PMS_P1;PMS_P2;Temp;Humidity;BMP_temperature;BMP_pressure;BME280_temperature;BME280_humidity;BME280_pressure;Samples;Min_cycle;Max_cycle;Signal;HPM_P1;HPM_P2
2021/03/21 00:02:16;;;;;;;8.43;6.63;;;0.10;99.90;;;;;;5074904;28;20166;-52
2021/03/21 00:04:42;;;;;;;7.93;6.70;;;0.00;99.70;;;;;;5075240;28;20241;-59
2021/03/21 00:07:07;;;;;;;8.60;6.00;;;0.00;99.70;;;;;;5074731;28;20170;-53
2021/03/21 00:09:33;;;;;;;7.60;6.03;;;0.00;99.60;;;;;;5075008;28;20170;-53
2021/03/21 00:11:58;;;;;;;8.13;6.47;;;0.10;99.60;;;;;;5074576;28;20696;-51
2021/03/21 00:14:24;;;;;;;9.47;6.97;;;0.10;99.60;;;;;;5075303;28;20217;-50
2021/03/21 00:16:49;;;;;;;8.17;6.30;;;0.10;99.50;;;;;;5075463;28;20199;-57
2021/03/21 00:19:15;;;;;;;7.37;5.93;;;0.10;99.50;;;;;;5074835;28;20694;-53
2021/03/21 00:21:41;;;;;;;8.73;6.33;;;0.20;99.40;;;;;;5074131;28;20167;-52
2021/03/21 00:24:07;;;;;;;8.50;6.27;;;0.20;99.40;;;;;;5074333;28;20175;-59
2021/03/21 00:26:34;;;;;;;7.33;5.77;;;0.30;99.40;;;;;;5073992;28;20210;-53
2021/03/21 00:28:59;;;;;;;9.20;6.50;;;0.30;99.00;;;;;;5075628;28;20540;-49
2021/03/21 00:31:25;;;;;;;8.63;6.17;;;0.30;99.00;;;;;;5074537;28;21034;-53
2021/03/21 00:33:50;;;;;;;8.23;6.43;;;0.30;98.80;;;;;;5074458;28;20228;-49
2021/03/21 00:36:16;;;;;;;8.13;6.70;;;0.40;99.00;;;;;;5074111;28;20273;-59
2021/03/21 00:38:49;;;;;;;7.50;6.10;;;0.40;99.00;;;;;;5075477;28;20247;-54
2021/03/21 00:41:16;;;;;;;8.80;6.43;;;0.30;99.20;;;;;;5074133;28;20408;-56
2021/03/21 00:43:42;;;;;;;10.27;6.87;;;0.40;99.10;;;;;;5075078;28;20400;-52
2021/03/21 00:46:09;;;;;;;7.47;6.30;;;0.40;98.80;;;;;;5075366;28;20486;-51
2021/03/21 00:48:38;;;;;;;9.10;6.47;;;0.40;98.50;;;;;;5075312;28;20170;-52
2021/03/21 00:51:04;;;;;;;9.97;7.00;;;0.40;98.50;;;;;;5074018;28;20405;-53
2021/03/21 00:53:30;;;;;;;8.57;6.27;;;0.30;98.50;;;;;;5073303;28;20467;-51
2021/03/21 00:55:56;;;;;;;11.00;6.77;;;0.40;98.70;;;;;;5074387;28;20762;-50
2021/03/21 00:58:22;;;;;;;7.83;6.07;;;0.30;98.70;;;;;;5074542;28;20948;-52
2021/03/21 01:00:50;;;;;;;7.83;6.53;;;0.30;98.70;;;;;;5074480;28;20183;-50
2021/03/21 01:03:16;;;;;;;8.00;6.03;;;0.30;98.60;;;;;;5074911;28;20174;-51
2021/03/21 01:06:13;;;;;;;7.83;6.57;;;0.30;98.80;;;;;;5073977;28;20423;-50
2021/03/21 01:08:40;;;;;;;10.63;7.67;;;0.40;99.00;;;;;;5032882;28;20438;-59
2021/03/21 01:11:19;;;;;;;7.60;6.57;;;0.30;99.10;;;;;;5031672;28;20496;-51
2021/03/21 01:13:45;;;;;;;9.40;7.30;;;0.40;99.20;;;;;;5032442;28;20410;-54
2021/03/21 01:16:21;;;;;;;8.80;6.67;;;0.40;99.10;;;;;;5031842;28;20818;-49
2021/03/21 01:18:48;;;;;;;9.73;7.87;;;0.50;99.10;;;;;;5032498;28;20481;-54
2021/03/21 01:21:14;;;;;;;8.77;6.97;;;0.40;99.10;;;;;;5031329;28;20815;-54
2021/03/21 01:23:41;;;;;;;11.43;7.37;;;0.40;99.40;;;;;;5031899;28;20406;-51
2021/03/21 01:26:09;;;;;;;10.93;8.17;;;0.50;99.50;;;;;;5031825;28;20695;-53
2021/03/21 01:28:36;;;;;;;9.40;6.83;;;0.50;99.40;;;;;;5031529;28;20410;-52
2021/03/21 01:31:05;;;;;;;10.73;7.00;;;0.50;99.20;;;;;;5031211;28;21000;-53
2021/03/21 01:33:32;;;;;;;9.43;7.50;;;0.40;99.20;;;;;;5031848;28;20445;-52
2021/03/21 01:35:59;;;;;;;8.20;6.93;;;0.50;99.40;;;;;;5031356;28;20456;-53
2021/03/21 01:38:24;;;;;;;9.70;7.27;;;0.50;99.40;;;;;;5035824;28;20466;-52
2021/03/21 01:40:55;;;;;;;9.83;7.40;;;0.50;99.40;;;;;;5035034;28;20771;-56
2021/03/21 01:43:30;;;;;;;8.23;6.90;;;0.50;99.40;;;;;;5019507;28;20371;-58
2021/03/21 01:45:56;;;;;;;9.83;7.00;;;0.50;99.50;;;;;;5055300;28;20781;-54
2021/03/21 01:48:34;;;;;;;11.83;7.87;;;0.60;99.50;;;;;;5057609;28;20435;-56
2021/03/21 01:51:21;;;;;;;10.90;8.43;;;0.60;99.30;;;;;;5057587;28;20206;-49
2021/03/21 01:53:53;;;;;;;12.30;9.00;;;0.50;99.20;;;;;;5058342;28;20943;-50
2021/03/21 01:56:19;;;;;;;10.13;7.50;;;0.60;99.30;;;;;;5056698;28;20483;-51
2021/03/21 01:58:49;;;;;;;9.93;7.37;;;0.60;99.40;;;;;;5058104;28;20453;-50
2021/03/21 02:01:22;;;;;;;9.37;7.07;;;0.70;99.40;;;;;;5057065;28;20190;-54
2021/03/21 02:03:48;;;;;;;8.63;6.73;;;0.70;99.40;;;;;;5057762;28;20390;-55
2021/03/21 02:06:16;;;;;;;8.23;6.47;;;0.60;99.60;;;;;;5057677;28;21132;-56
2021/03/21 02:08:51;;;;;;;7.90;6.60;;;0.60;99.60;;;;;;5057895;28;20175;-54
2021/03/21 02:11:26;;;;;;;8.33;7.03;;;0.60;99.60;;;;;;5056830;28;20769;-51
2021/03/21 02:14:16;;;;;;;7.80;6.30;;;0.70;99.40;;;;;;5056557;28;20416;-52
2021/03/21 02:17:14;;;;;;;9.07;6.73;;;0.80;99.40;;;;;;5056827;28;20413;-50
2021/03/21 02:19:58;;;;;;;9.10;6.67;;;0.80;99.40;;;;;;5056928;28;20461;-55
2021/03/21 02:22:39;;;;;;;11.27;7.43;;;0.80;99.30;;;;;;5056376;28;20481;-58
2021/03/21 02:25:44;;;;;;;9.20;7.33;;;0.80;99.30;;;;;;5057239;28;20509;-50
2021/03/21 02:28:25;;;;;;;8.63;6.17;;;0.80;99.30;;;;;;5056514;28;20390;-51
2021/03/21 02:30:58;;;;;;;9.23;6.90;;;0.80;99.40;;;;;;5057132;28;20397;-56
2021/03/21 02:33:29;;;;;;;8.43;6.80;;;0.80;99.40;;;;;;5058603;28;20846;-50
2021/03/21 02:36:08;;;;;;;9.13;7.03;;;0.80;99.20;;;;;;5057259;28;20449;-49
2021/03/21 02:38:45;;;;;;;9.10;7.40;;;0.80;99.30;;;;;;5056493;28;20461;-55
2021/03/21 02:41:43;;;;;;;8.60;6.97;;;0.70;99.50;;;;;;5056192;28;20403;-50
2021/03/21 02:44:14;;;;;;;8.60;6.87;;;0.70;99.50;;;;;;5056584;28;20413;-55
2021/03/21 02:46:45;;;;;;;8.27;6.80;;;0.60;99.60;;;;;;5057778;28;20508;-51
2021/03/21 02:49:31;;;;;;;7.90;6.90;;;0.70;99.50;;;;;;5056896;28;20467;-51
2021/03/21 02:52:06;;;;;;;8.53;6.70;;;0.70;99.40;;;;;;5055946;28;20402;-54
2021/03/21 02:55:01;;;;;;;9.50;7.30;;;0.70;99.40;;;;;;5056955;28;20413;-55
2021/03/21 02:57:34;;;;;;;9.03;7.13;;;0.70;99.70;;;;;;5052770;28;20467;-57
2021/03/21 03:00:02;;;;;;;8.87;6.87;;;0.80;99.70;;;;;;5056158;28;20540;-52
2021/03/21 03:02:38;;;;;;;9.17;7.13;;;0.80;99.70;;;;;;5057061;28;20412;-51
2021/03/21 03:05:25;;;;;;;8.77;7.40;;;0.70;99.60;;;;;;5055427;28;20996;-54
2021/03/21 03:08:13;;;;;;;10.37;7.73;;;0.70;99.50;;;;;;5056564;28;20964;-53
2021/03/21 03:11:04;;;;;;;10.17;7.70;;;0.70;99.90;;;;;;5056438;28;20468;-55
2021/03/21 03:14:03;;;;;;;10.10;7.63;;;0.70;99.60;;;;;;5055997;28;20852;-54
2021/03/21 03:16:37;;;;;;;9.67;7.40;;;0.70;99.50;;;;;;4994557;28;20804;-53
2021/03/21 03:19:33;;;;;;;9.53;7.70;;;0.70;99.20;;;;;;4994738;28;21009;-49
2021/03/21 03:22:07;;;;;;;9.03;7.30;;;0.60;99.30;;;;;;4993466;28;20539;-49
2021/03/21 03:24:45;;;;;;;8.67;7.33;;;0.60;99.90;;;;;;4994246;28;20431;-49
2021/03/21 03:27:17;;;;;;;9.87;7.27;;;0.50;99.90;;;;;;4994533;28;20408;-58
2021/03/21 03:29:52;;;;;;;8.47;7.07;;;0.30;99.90;;;;;;4995647;28;20475;-54
2021/03/21 03:32:18;;;;;;;8.90;7.10;;;0.30;99.90;;;;;;4993838;28;20428;-52
2021/03/21 03:34:52;;;;;;;9.27;7.33;;;0.40;99.90;;;;;;4994842;28;20415;-49
2021/03/21 03:37:18;;;;;;;9.33;7.20;;;0.50;99.90;;;;;;4994326;28;20740;-50
2021/03/21 03:39:44;;;;;;;10.80;7.40;;;0.50;99.90;;;;;;4994219;28;20551;-50
2021/03/21 03:42:26;;;;;;;10.17;7.60;;;0.60;99.90;;;;;;4994188;28;20173;-59
2021/03/21 03:45:04;;;;;;;9.20;7.50;;;0.70;99.90;;;;;;4993873;28;20176;-58
2021/03/21 03:48:15;;;;;;;9.83;7.73;;;0.70;99.90;;;;;;4994118;28;20417;-58
2021/03/21 03:50:53;;;;;;;10.30;7.67;;;0.70;99.90;;;;;;4990831;28;20431;-49
2021/03/21 03:53:33;;;;;;;8.87;7.03;;;0.80;99.90;;;;;;5055240;28;20500;-52
2021/03/21 03:56:14;;;;;;;7.93;6.43;;;0.90;99.90;;;;;;5054785;28;20463;-51
2021/03/21 03:59:13;;;;;;;9.27;7.47;;;0.90;99.90;;;;;;5055211;28;20933;-52
2021/03/21 04:01:48;;;;;;;9.93;6.97;;;0.90;99.90;;;;;;5055116;28;20386;-55
2021/03/21 04:04:43;;;;;;;9.40;7.13;;;1.00;99.90;;;;;;5054916;28;20925;-54
2021/03/21 04:07:23;;;;;;;8.93;7.20;;;1.00;99.90;;;;;;5054758;28;20401;-49
2021/03/21 04:09:56;;;;;;;9.43;7.30;;;1.00;99.90;;;;;;5055114;28;20409;-50
2021/03/21 04:12:41;;;;;;;7.90;6.40;;;0.90;99.90;;;;;;5054518;28;20422;-51
2021/03/21 04:15:11;;;;;;;9.30;7.13;;;1.00;99.90;;;;;;5055244;28;20426;-52
2021/03/21 04:17:47;;;;;;;9.73;7.33;;;0.90;99.90;;;;;;5054773;28;20390;-55
2021/03/21 04:20:22;;;;;;;7.63;6.47;;;0.80;99.90;;;;;;5054845;28;20405;-59
2021/03/21 04:22:57;;;;;;;11.13;7.50;;;0.80;99.90;;;;;;5054312;28;20425;-49
2021/03/21 04:25:27;;;;;;;10.97;7.73;;;0.80;99.90;;;;;;5055487;28;20496;-51
2021/03/21 04:27:59;;;;;;;9.43;7.13;;;0.90;99.90;;;;;;5054097;28;20382;-52
2021/03/21 04:30:31;;;;;;;9.63;7.80;;;0.90;99.90;;;;;;5054556;28;20512;-52
2021/03/21 04:32:58;;;;;;;9.40;7.57;;;0.90;99.90;;;;;;5053650;28;21025;-59
2021/03/21 04:35:34;;;;;;;10.63;7.40;;;1.00;99.90;;;;;;5054491;28;20413;-53
2021/03/21 04:38:06;;;;;;;9.47;7.43;;;1.00;99.90;;;;;;5054461;28;20413;-59
2021/03/21 04:40:32;;;;;;;9.83;7.47;;;1.00;99.90;;;;;;5054618;28;20429;-56
2021/03/21 04:43:07;;;;;;;9.00;7.50;;;1.10;99.90;;;;;;5053782;28;20460;-50
2021/03/21 04:45:39;;;;;;;8.80;7.17;;;1.00;99.90;;;;;;5053558;28;20720;-54
2021/03/21 04:48:09;;;;;;;9.77;7.90;;;1.00;99.90;;;;;;5054680;28;20448;-53
2021/03/21 04:50:35;;;;;;;10.47;8.13;;;1.00;99.90;;;;;;5054151;28;20438;-53
2021/03/21 04:53:03;;;;;;;8.90;7.13;;;1.00;99.90;;;;;;5054359;28;20748;-52
2021/03/21 04:55:38;;;;;;;9.57;7.97;;;1.00;99.90;;;;;;5053876;28;20194;-50
2021/03/21 04:58:11;;;;;;;29.57;24.07;;;0.90;99.90;;;;;;5055000;28;20982;-54
2021/03/21 05:00:40;;;;;;;14.10;12.03;;;1.00;99.90;;;;;;5057069;28;21035;-54
2021/03/21 05:03:25;;;;;;;13.63;12.13;;;0.90;99.90;;;;;;5057682;28;20410;-56
2021/03/21 05:06:03;;;;;;;10.13;8.60;;;0.90;99.90;;;;;;5054100;28;20445;-55
2021/03/21 05:08:35;;;;;;;10.13;9.13;;;1.00;99.90;;;;;;5057283;28;20480;-57
2021/03/21 05:11:04;;;;;;;9.90;8.07;;;1.00;99.90;;;;;;5063606;28;20421;-53
2021/03/21 05:13:51;;;;;;;10.50;8.43;;;1.00;99.90;;;;;;5063535;28;20476;-51
2021/03/21 05:16:55;;;;;;;11.53;9.70;;;1.10;99.90;;;;;;5064681;28;20445;-49
2021/03/21 05:19:54;;;;;;;10.00;8.47;;;1.10;99.90;;;;;;5014307;28;20476;-49
2021/03/21 05:22:30;;;;;;;10.70;8.77;;;1.10;99.90;;;;;;5057887;28;20428;-55
2021/03/21 05:25:08;;;;;;;10.77;8.73;;;1.10;99.90;;;;;;5066054;28;20566;-54
2021/03/21 05:27:40;;;;;;;11.10;7.90;;;1.20;99.90;;;;;;5064492;28;20503;-55
2021/03/21 05:30:19;;;;;;;10.37;8.43;;;1.10;99.90;;;;;;5069059;28;20410;-55
2021/03/21 05:32:50;;;;;;;10.90;8.80;;;1.20;99.90;;;;;;5066254;28;20437;-52
2021/03/21 05:35:24;;;;;;;11.37;8.90;;;1.10;99.90;;;;;;5071118;28;20494;-59
2021/03/21 05:38:12;;;;;;;10.80;8.80;;;1.10;99.90;;;;;;5066037;28;20436;-50
2021/03/21 05:41:05;;;;;;;11.00;8.60;;;1.10;99.90;;;;;;5055108;28;20428;-52
2021/03/21 05:44:13;;;;;;;11.60;9.37;;;1.20;99.90;;;;;;5067109;28;20486;-53
2021/03/21 05:46:50;;;;;;;10.43;8.77;;;1.10;99.90;;;;;;5058886;28;20449;-52
2021/03/21 05:49:34;;;;;;;10.87;8.77;;;1.10;99.90;;;;;;5066249;28;20912;-49
2021/03/21 05:52:52;;;;;;;10.27;8.60;;;0.90;99.90;;;;;;5076564;28;20431;-51
2021/03/21 05:55:42;;;;;;;10.63;8.47;;;1.00;99.90;;;;;;5047469;28;20531;-56
2021/03/21 05:58:29;;;;;;;9.77;8.03;;;1.10;99.90;;;;;;5076399;28;20437;-49
2021/03/21 06:01:09;;;;;;;9.50;7.83;;;1.20;99.90;;;;;;5077279;28;20474;-55
2021/03/21 06:03:56;;;;;;;9.87;8.00;;;1.30;99.90;;;;;;5075488;28;20409;-52
2021/03/21 06:06:35;;;;;;;10.73;8.70;;;1.30;99.90;;;;;;5077187;28;20428;-57
2021/03/21 06:09:53;;;;;;;10.47;8.13;;;1.30;99.90;;;;;;5076210;28;20884;-50
2021/03/21 06:12:42;;;;;;;11.27;8.10;;;1.40;99.90;;;;;;5035015;28;20407;-55
2021/03/21 06:15:49;;;;;;;10.27;7.63;;;1.50;99.90;;;;;;5076888;28;20421;-52
2021/03/21 06:18:30;;;;;;;11.73;8.40;;;1.60;99.90;;;;;;5076840;28;20451;-58
2021/03/21 06:21:14;;;;;;;11.37;9.20;;;1.40;99.90;;;;;;5077089;28;20819;-51
2021/03/21 06:24:12;;;;;;;10.07;8.50;;;1.30;99.90;;;;;;5076620;28;20421;-49
2021/03/21 06:26:55;;;;;;;11.87;8.57;;;1.20;99.90;;;;;;5075338;28;20429;-49
2021/03/21 06:30:05;;;;;;;10.23;9.07;;;1.10;99.90;;;;;;5077379;28;20404;-54
2021/03/21 06:32:49;;;;;;;11.33;8.97;;;1.20;99.90;;;;;;5064766;28;20565;-56
2021/03/21 06:35:18;;;;;;;11.77;9.93;;;1.30;99.90;;;;;;5074636;28;20429;-57
2021/03/21 06:38:03;;;;;;;10.67;9.50;;;1.40;99.90;;;;;;5056714;28;20528;-52
2021/03/21 06:40:37;;;;;;;11.67;9.13;;;1.50;99.90;;;;;;5056493;28;20858;-49
2021/03/21 06:43:22;;;;;;;11.23;9.20;;;1.60;99.90;;;;;;5056235;28;20444;-51
2021/03/21 06:46:03;;;;;;;11.20;9.63;;;1.70;99.90;;;;;;5056377;28;20761;-53
2021/03/21 06:48:46;;;;;;;12.57;9.43;;;1.70;99.90;;;;;;5056934;28;20394;-58
2021/03/21 06:51:24;;;;;;;11.00;9.20;;;1.70;99.90;;;;;;5055205;28;20412;-53
2021/03/21 06:53:59;;;;;;;10.33;8.90;;;1.60;99.90;;;;;;5054019;28;20408;-49
2021/03/21 06:56:31;;;;;;;12.47;10.40;;;1.50;99.90;;;;;;5055348;28;20421;-51
2021/03/21 06:59:14;;;;;;;11.03;9.87;;;1.50;99.90;;;;;;5054528;28;20456;-49
2021/03/21 07:01:48;;;;;;;11.20;9.67;;;1.50;99.90;;;;;;5054793;28;20892;-55
2021/03/21 07:04:41;;;;;;;12.37;9.80;;;1.70;99.90;;;;;;5054766;28;20912;-51
2021/03/21 07:07:15;;;;;;;15.30;11.10;;;1.80;99.90;;;;;;5055469;28;20758;-54
2021/03/21 07:10:02;;;;;;;12.47;10.20;;;1.90;99.90;;;;;;5074240;28;20970;-52
2021/03/21 07:12:53;;;;;;;12.37;10.30;;;1.90;99.90;;;;;;5059519;28;20428;-51
2021/03/21 07:15:38;;;;;;;14.07;10.63;;;2.10;99.90;;;;;;5055729;28;20421;-50
2021/03/21 07:18:29;;;;;;;11.00;9.50;;;2.20;99.90;;;;;;5054892;28;20444;-49
2021/03/21 07:21:02;;;;;;;11.60;8.97;;;2.50;99.90;;;;;;5062321;28;20471;-53
2021/03/21 07:23:49;;;;;;;13.43;10.00;;;2.60;99.90;;;;;;5059218;28;20417;-54
2021/03/21 07:26:55;;;;;;;11.90;9.90;;;2.80;99.90;;;;;;5063071;28;20433;-51
2021/03/21 07:29:44;;;;;;;29.93;20.23;;;2.70;99.90;;;;;;5059646;28;20543;-53
2021/03/21 07:32:48;;;;;;;11.17;9.67;;;2.50;99.90;;;;;;5066938;28;20962;-53
2021/03/21 07:35:38;;;;;;;12.13;9.63;;;2.40;99.90;;;;;;5064372;28;20444;-50
2021/03/21 07:38:22;;;;;;;9.73;8.37;;;2.10;99.90;;;;;;5063599;28;20445;-52
2021/03/21 07:41:41;;;;;;;11.00;8.50;;;2.20;99.90;;;;;;5061490;28;20556;-59
2021/03/21 07:44:22;;;;;;;11.83;9.13;;;2.20;99.90;;;;;;5013829;28;20470;-51
2021/03/21 07:47:13;;;;;;;10.73;8.87;;;2.40;99.90;;;;;;5023389;28;20446;-51
2021/03/21 07:49:57;;;;;;;9.07;8.07;;;2.50;99.90;;;;;;5021060;28;20437;-49
2021/03/21 07:52:41;;;;;;;35.37;31.77;;;2.60;99.90;;;;;;5053886;28;20413;-54
2021/03/21 07:55:35;;;;;;;12.40;11.07;;;2.70;99.90;;;;;;5061788;28;20463;-50
2021/03/21 07:58:12;;;;;;;11.23;9.60;;;2.50;99.90;;;;;;5062086;28;20438;-55
2021/03/21 08:00:39;;;;;;;9.07;7.97;;;2.60;99.90;;;;;;5059918;28;20440;-54
2021/03/21 08:03:55;;;;;;;12.90;9.37;;;2.70;99.90;;;;;;5061264;28;20409;-53
2021/03/21 08:06:30;;;;;;;10.07;8.00;;;2.70;99.90;;;;;;5020523;28;20447;-52
2021/03/21 08:09:19;;;;;;;10.47;8.30;;;2.50;99.90;;;;;;5026745;28;20425;-49
2021/03/21 08:12:08;;;;;;;9.97;8.60;;;2.40;99.90;;;;;;5047454;28;20523;-51
2021/03/21 08:14:43;;;;;;;9.17;7.70;;;2.20;99.90;;;;;;5026008;28;21017;-57
2021/03/21 08:17:21;;;;;;;9.63;8.13;;;2.20;99.90;;;;;;5073927;28;20481;-55
2021/03/21 08:19:47;;;;;;;9.83;7.67;;;2.20;99.90;;;;;;5062111;28;20476;-51
2021/03/21 08:22:17;;;;;;;9.40;7.93;;;2.20;99.90;;;;;;5063258;28;20457;-50
2021/03/21 08:24:46;;;;;;;8.17;7.27;;;2.20;99.90;;;;;;5062284;28;20416;-53
2021/03/21 08:27:30;;;;;;;8.93;7.70;;;2.30;99.90;;;;;;5074371;28;20440;-51
2021/03/21 08:30:06;;;;;;;10.13;8.20;;;2.30;99.90;;;;;;5074288;28;20400;-53
2021/03/21 08:32:34;;;;;;;9.53;8.00;;;2.30;99.90;;;;;;5061679;28;20486;-51
2021/03/21 08:35:17;;;;;;;10.27;8.07;;;2.20;99.90;;;;;;5073978;28;20425;-58
2021/03/21 08:37:46;;;;;;;9.30;8.10;;;2.20;99.90;;;;;;5074497;28;20483;-49
2021/03/21 08:40:22;;;;;;;11.53;7.87;;;2.20;99.90;;;;;;5076367;28;20456;-49
2021/03/21 08:42:51;;;;;;;9.97;7.93;;;2.20;99.90;;;;;;5086784;28;20409;-55
2021/03/21 08:45:20;;;;;;;11.00;8.00;;;2.10;99.90;;;;;;5085006;28;20439;-53
2021/03/21 08:47:46;;;;;;;10.10;7.43;;;2.00;99.90;;;;;;5078184;28;20440;-49
2021/03/21 08:50:36;;;;;;;8.80;7.53;;;2.10;99.90;;;;;;5084734;28;20908;-57
2021/03/21 08:53:03;;;;;;;9.97;7.07;;;2.00;99.90;;;;;;5073502;28;20417;-56
2021/03/21 08:55:36;;;;;;;8.20;6.67;;;1.90;99.90;;;;;;5076985;28;20515;-49
2021/03/21 08:58:25;;;;;;;9.73;6.97;;;1.90;99.90;;;;;;5055088;28;20394;-50
2021/03/21 09:00:53;;;;;;;9.23;7.60;;;2.00;99.90;;;;;;5054562;28;20455;-54
2021/03/21 09:03:31;;;;;;;10.10;7.53;;;2.00;99.90;;;;;;5054323;28;20406;-52
2021/03/21 09:05:59;;;;;;;9.77;6.70;;;2.00;99.90;;;;;;5054793;28;20479;-51
2021/03/21 09:08:31;;;;;;;8.17;6.77;;;2.00;99.90;;;;;;5065208;28;20456;-55
2021/03/21 09:11:00;;;;;;;8.53;7.47;;;2.00;99.90;;;;;;5069443;28;20435;-49
2021/03/21 09:13:28;;;;;;;7.73;6.63;;;2.00;99.90;;;;;;5062903;28;20931;-49
2021/03/21 09:15:54;;;;;;;8.87;6.93;;;2.00;99.90;;;;;;5069296;28;20483;-49
2021/03/21 09:18:19;;;;;;;8.30;6.90;;;2.10;99.90;;;;;;5059502;28;20480;-54
2021/03/21 09:20:58;;;;;;;7.67;6.77;;;2.10;99.90;;;;;;5062461;28;20657;-50
2021/03/21 09:23:43;;;;;;;8.87;7.07;;;2.20;99.90;;;;;;5063814;28;20170;-56
2021/03/21 09:26:28;;;;;;;8.20;6.77;;;2.10;99.90;;;;;;5070900;28;20436;-53
2021/03/21 09:29:01;;;;;;;8.30;6.23;;;2.20;99.90;;;;;;5054701;28;20437;-53
2021/03/21 09:31:28;;;;;;;7.53;6.40;;;2.20;99.90;;;;;;5065203;28;20413;-51
2021/03/21 09:33:58;;;;;;;7.80;6.23;;;2.30;99.90;;;;;;5072930;28;20808;-51
2021/03/21 09:36:28;;;;;;;9.73;6.77;;;2.20;99.90;;;;;;5072131;28;20424;-53
2021/03/21 09:39:00;;;;;;;8.77;6.07;;;2.10;99.90;;;;;;5064473;28;20445;-49
2021/03/21 09:41:28;;;;;;;9.03;6.53;;;2.00;99.90;;;;;;5061641;28;20432;-53
2021/03/21 09:44:02;;;;;;;9.20;6.67;;;2.10;99.90;;;;;;5042409;28;20428;-50
2021/03/21 09:46:46;;;;;;;11.53;7.30;;;2.00;99.90;;;;;;5058366;28;20436;-49
2021/03/21 09:49:40;;;;;;;7.50;5.90;;;2.00;99.90;;;;;;5058358;28;20426;-58
2021/03/21 09:52:40;;;;;;;7.27;6.17;;;2.00;99.90;;;;;;5065783;28;20425;-55
2021/03/21 09:55:32;;;;;;;8.07;5.93;;;1.90;99.90;;;;;;5061392;28;20528;-51
2021/03/21 09:58:16;;;;;;;7.07;5.77;;;2.00;99.90;;;;;;5066868;28;20954;-50
2021/03/21 10:00:48;;;;;;;7.60;6.00;;;2.00;99.90;;;;;;5072910;28;20423;-53
2021/03/21 10:03:27;;;;;;;6.77;5.13;;;2.00;99.90;;;;;;5071402;28;20410;-53
2021/03/21 10:06:08;;;;;;;7.07;5.13;;;2.10;99.90;;;;;;5067523;28;20505;-49
2021/03/21 10:09:09;;;;;;;7.63;5.40;;;1.90;99.90;;;;;;5070379;28;20930;-55
2021/03/21 10:11:45;;;;;;;6.20;4.90;;;1.80;99.90;;;;;;5070564;28;20432;-52
2021/03/21 10:14:26;;;;;;;8.63;5.83;;;1.90;99.90;;;;;;5062751;28;20957;-55
2021/03/21 10:16:56;;;;;;;6.63;5.17;;;1.90;99.90;;;;;;5075081;28;20444;-56
2021/03/21 10:19:47;;;;;;;6.57;5.17;;;2.00;99.90;;;;;;5077733;28;20459;-53
2021/03/21 10:22:18;;;;;;;6.27;5.03;;;2.10;99.90;;;;;;5077438;28;20445;-49
2021/03/21 10:24:49;;;;;;;7.10;5.30;;;2.00;99.90;;;;;;5065335;28;20417;-50
2021/03/21 10:27:15;;;;;;;5.90;5.30;;;2.00;99.90;;;;;;5064957;28;20401;-50
2021/03/21 10:29:44;;;;;;;8.87;5.50;;;2.00;99.90;;;;;;5068022;28;20516;-53
2021/03/21 10:32:22;;;;;;;7.13;5.20;;;2.00;99.90;;;;;;5066564;28;20909;-56
2021/03/21 10:34:49;;;;;;;6.40;5.23;;;2.10;99.90;;;;;;5066570;28;20409;-51
2021/03/21 10:37:43;;;;;;;8.43;5.70;;;2.10;99.90;;;;;;5069406;28;20776;-53
2021/03/21 10:40:23;;;;;;;5.70;4.53;;;2.10;99.90;;;;;;5066943;28;20449;-53
2021/03/21 10:42:59;;;;;;;5.93;5.27;;;2.10;99.90;;;;;;5064578;28;20401;-51
2021/03/21 10:45:34;;;;;;;8.53;5.03;;;1.90;99.90;;;;;;5066326;28;20457;-50
2021/03/21 10:48:01;;;;;;;6.60;4.83;;;2.10;99.90;;;;;;5065631;28;20416;-50
2021/03/21 10:50:30;;;;;;;8.00;5.07;;;2.30;99.90;;;;;;5069407;28;20474;-61
2021/03/21 10:53:18;;;;;;;7.20;5.10;;;2.40;99.90;;;;;;5059534;28;20405;-49
2021/03/21 10:56:08;;;;;;;5.70;4.80;;;2.20;99.90;;;;;;5061404;28;20995;-54
2021/03/21 10:58:36;;;;;;;4.97;4.43;;;2.20;99.90;;;;;;5075655;28;20788;-57
2021/03/21 11:01:17;;;;;;;6.10;5.03;;;2.20;99.90;;;;;;5075735;28;20428;-57
2021/03/21 11:03:57;;;;;;;7.77;5.30;;;2.20;99.90;;;;;;5075815;28;20400;-52
2021/03/21 11:06:25;;;;;;;8.43;5.60;;;2.00;99.90;;;;;;5075211;28;20785;-57
2021/03/21 11:08:51;;;;;;;5.93;5.27;;;1.90;99.90;;;;;;5062637;28;20479;-57
2021/03/21 11:11:24;;;;;;;6.50;5.30;;;1.80;99.90;;;;;;5069373;28;20904;-56
2021/03/21 11:13:51;;;;;;;6.73;5.63;;;1.90;99.90;;;;;;5074371;28;20178;-53
2021/03/21 11:16:24;;;;;;;7.00;5.70;;;1.90;99.90;;;;;;5074426;28;21001;-60
2021/03/21 11:18:53;;;;;;;6.70;5.67;;;1.80;99.90;;;;;;5064562;28;20460;-56
2021/03/21 11:21:20;;;;;;;6.97;5.60;;;1.70;99.90;;;;;;5054423;28;21057;-53
2021/03/21 11:23:58;;;;;;;6.70;5.87;;;1.60;99.90;;;;;;5072150;28;20498;-59
2021/03/21 11:26:31;;;;;;;7.17;5.50;;;1.70;99.90;;;;;;5071744;28;20421;-51
2021/03/21 11:29:06;;;;;;;6.37;5.43;;;1.80;99.90;;;;;;5073860;28;20430;-55
2021/03/21 11:31:33;;;;;;;6.93;5.57;;;1.90;99.90;;;;;;5074762;28;20471;-54
2021/03/21 11:34:14;;;;;;;8.90;5.80;;;2.00;99.90;;;;;;5073044;28;20440;-55
2021/03/21 11:36:40;;;;;;;8.33;6.40;;;2.00;99.90;;;;;;5068356;28;20944;-57
2021/03/21 11:39:31;;;;;;;7.47;5.53;;;2.00;99.90;;;;;;5060860;28;20451;-57
2021/03/21 11:41:56;;;;;;;8.60;5.60;;;2.00;99.90;;;;;;5061300;28;20242;-54
2021/03/21 11:44:29;;;;;;;8.30;5.87;;;2.10;99.90;;;;;;5062955;28;20448;-53
2021/03/21 11:47:09;;;;;;;9.23;6.00;;;2.10;99.90;;;;;;5062555;28;20194;-50
2021/03/21 11:49:36;;;;;;;6.80;5.60;;;2.10;99.90;;;;;;5069366;28;20401;-55
2021/03/21 11:52:05;;;;;;;8.27;6.03;;;2.00;99.90;;;;;;5072589;28;20962;-51
2021/03/21 11:54:33;;;;;;;7.47;5.77;;;1.90;99.90;;;;;;5066673;28;20904;-59
2021/03/21 11:57:13;;;;;;;7.97;5.53;;;2.00;99.90;;;;;;5065448;28;20437;-60
2021/03/21 11:59:47;;;;;;;8.97;6.30;;;1.90;99.90;;;;;;5076051;28;20472;-53
2021/03/21 12:02:32;;;;;;;7.47;6.40;;;2.00;99.90;;;;;;5076642;28;20411;-55
2021/03/21 12:05:00;;;;;;;7.80;6.03;;;1.90;99.90;;;;;;5076846;28;20899;-56
2021/03/21 12:07:28;;;;;;;7.57;6.57;;;1.80;99.90;;;;;;5076242;28;20432;-51
2021/03/21 12:09:54;;;;;;;7.87;6.20;;;1.70;99.90;;;;;;5075798;28;20423;-57
2021/03/21 12:12:36;;;;;;;7.60;6.57;;;1.70;99.90;;;;;;5076719;28;20415;-53
2021/03/21 12:15:05;;;;;;;8.17;6.70;;;1.70;99.90;;;;;;5073479;28;21032;-55
2021/03/21 12:17:33;;;;;;;9.23;6.43;;;1.60;99.90;;;;;;5077983;28;20436;-50
2021/03/21 12:20:29;;;;;;;7.83;6.43;;;1.60;99.90;;;;;;5077744;28;20464;-56
2021/03/21 12:22:54;;;;;;;8.77;6.97;;;1.70;99.90;;;;;;5078756;28;20394;-58
2021/03/21 12:25:38;;;;;;;10.23;6.30;;;1.80;99.90;;;;;;5078531;28;20420;-49
2021/03/21 12:28:20;;;;;;;7.43;6.03;;;2.00;99.90;;;;;;5076767;28;20245;-52
2021/03/21 12:30:55;;;;;;;8.53;6.57;;;2.00;99.90;;;;;;5078785;28;20389;-60
2021/03/21 12:33:31;;;;;;;9.07;6.37;;;2.00;99.90;;;;;;5076419;28;20526;-57
2021/03/21 12:36:12;;;;;;;8.47;6.70;;;2.10;99.90;;;;;;5077459;28;20474;-52
2021/03/21 12:38:47;;;;;;;8.40;6.83;;;1.90;99.90;;;;;;5077434;28;20506;-54
2021/03/21 12:41:30;;;;;;;8.33;6.90;;;1.90;99.90;;;;;;5077813;28;20438;-51
2021/03/21 12:44:29;;;;;;;8.00;6.53;;;1.90;99.90;;;;;;5076492;28;20795;-59
2021/03/21 12:47:13;;;;;;;9.00;6.63;;;1.90;99.90;;;;;;5075025;28;20427;-50
2021/03/21 12:49:49;;;;;;;8.57;7.07;;;1.90;99.90;;;;;;5075726;28;20408;-51
2021/03/21 12:52:25;;;;;;;8.83;6.63;;;1.80;99.90;;;;;;5075921;28;20411;-51
2021/03/21 12:54:52;;;;;;;10.37;7.03;;;1.80;99.90;;;;;;5075606;28;20408;-55
2021/03/21 12:57:19;;;;;;;9.03;7.40;;;1.80;99.90;;;;;;5078285;28;20400;-49
2021/03/21 12:59:50;;;;;;;9.67;7.73;;;2.00;99.90;;;;;;5064975;28;20445;-51
2021/03/21 13:02:37;;;;;;;8.77;6.97;;;1.90;99.90;;;;;;5058756;28;20417;-56
2021/03/21 13:05:07;;;;;;;10.20;7.63;;;1.80;99.90;;;;;;5057587;28;20518;-52
2021/03/21 13:07:33;;;;;;;11.67;7.53;;;1.80;99.90;;;;;;5055104;28;20421;-58
2021/03/21 13:09:58;;;;;;;9.67;8.00;;;1.90;99.90;;;;;;5058746;28;20815;-53
2021/03/21 13:12:25;;;;;;;9.03;7.23;;;1.90;99.90;;;;;;5057133;28;20187;-58
2021/03/21 13:14:51;;;;;;;11.43;7.67;;;1.80;99.90;;;;;;5058735;28;20174;-51
2021/03/21 13:17:18;;;;;;;9.07;7.87;;;1.70;99.90;;;;;;5075180;28;20815;-57
2021/03/21 13:19:44;;;;;;;11.97;8.10;;;1.70;99.90;;;;;;5074091;28;20461;-55
2021/03/21 13:22:11;;;;;;;9.93;7.50;;;1.70;99.90;;;;;;5076231;28;20419;-56
2021/03/21 13:24:37;;;;;;;11.17;7.57;;;1.70;99.90;;;;;;5071213;28;20442;-59
2021/03/21 13:27:03;;;;;;;9.53;8.07;;;1.70;99.90;;;;;;5058200;28;20446;-52
2021/03/21 13:29:29;;;;;;;9.30;7.93;;;1.80;99.90;;;;;;5056658;28;20521;-49
2021/03/21 13:31:55;;;;;;;10.90;7.97;;;1.90;99.90;;;;;;5057572;28;20804;-55
2021/03/21 13:34:22;;;;;;;9.33;7.33;;;1.90;99.90;;;;;;5070747;28;20438;-51
2021/03/21 13:36:47;;;;;;;8.97;7.47;;;2.00;99.90;;;;;;5077403;28;20214;-59
2021/03/21 13:39:13;;;;;;;10.37;8.33;;;2.00;99.90;;;;;;5079173;28;20460;-56
2021/03/21 13:41:39;;;;;;;11.60;8.97;;;2.00;99.90;;;;;;5079445;28;20177;-56
2021/03/21 13:44:06;;;;;;;11.10;8.27;;;1.90;99.90;;;;;;5080991;28;20190;-53